createdAt,value
2022-09-11T00:01:50.502Z,99.90
2022-09-11T00:04:18.676Z,99.90
2022-09-11T00:06:47.602Z,99.90
2022-09-11T00:09:15.918Z,99.90
2022-09-11T00:11:44.318Z,99.90
2022-09-11T00:14:15.676Z,99.90
2022-09-11T00:16:47.605Z,99.90
2022-09-11T00:19:18.979Z,99.90
2022-09-11T00:21:50.826Z,99.90
2022-09-11T00:24:18.999Z,99.90
2022-09-11T00:26:47.865Z,99.90
2022-09-11T00:29:18.396Z,99.90
2022-09-11T00:31:48.273Z,99.90
2022-09-11T00:34:17.708Z,99.90
2022-09-11T00:36:46.150Z,99.90
2022-09-11T00:39:14.960Z,99.90
2022-09-11T00:41:46.364Z,99.90
2022-09-11T00:45:00.985Z,99.90
2022-09-11T00:47:32.053Z,99.90
2022-09-11T00:50:13.477Z,99.90
2022-09-11T00:52:53.093Z,99.90
2022-09-11T00:55:27.307Z,99.90
2022-09-11T00:58:00.881Z,99.90
2022-09-11T01:00:30.973Z,99.90
2022-09-11T01:03:00.559Z,99.90
2022-09-11T01:05:34.609Z,99.90
2022-09-11T01:08:04.413Z,99.90
2022-09-11T01:10:47.303Z,99.90
2022-09-11T01:13:28.368Z,99.90
2022-09-11T01:16:09.680Z,99.90
2022-09-11T01:18:50.886Z,99.90
2022-09-11T01:21:53.138Z,99.90
2022-09-11T01:24:50.778Z,99.90
2022-09-11T01:27:48.351Z,99.90
2022-09-11T01:30:21.197Z,99.90
2022-09-11T01:33:15.718Z,99.90
2022-09-11T01:36:00.771Z,99.90
2022-09-11T01:38:38.190Z,99.90
2022-09-11T01:41:14.708Z,99.90
2022-09-11T01:43:52.871Z,99.90
2022-09-11T01:46:28.287Z,99.90
2022-09-11T01:49:07.306Z,99.90
2022-09-11T01:51:39.366Z,99.90
2022-09-11T01:54:16.568Z,99.90
2022-09-11T01:56:53.736Z,99.90
2022-09-11T01:59:31.817Z,99.90
2022-09-11T02:02:06.945Z,99.90
2022-09-11T02:04:41.832Z,99.90
2022-09-11T02:07:17.348Z,99.90
2022-09-11T02:09:55.023Z,99.90
2022-09-11T02:12:31.398Z,99.90
2022-09-11T02:15:01.971Z,99.90
2022-09-11T02:17:44.198Z,99.90
2022-09-11T02:20:13.155Z,99.90
2022-09-11T02:22:42.199Z,99.90
2022-09-11T02:25:11.822Z,99.90
2022-09-11T02:27:40.152Z,99.90
2022-09-11T02:30:12.581Z,99.90
2022-09-11T02:32:44.844Z,99.90
2022-09-11T02:35:15.080Z,99.90
2022-09-11T02:37:53.540Z,99.90
2022-09-11T02:40:44.595Z,99.90
2022-09-11T02:43:48.349Z,99.90
2022-09-11T02:46:40.353Z,99.90
2022-09-11T02:49:24.688Z,99.90
2022-09-11T02:52:07.812Z,99.90
2022-09-11T02:54:51.970Z,99.90
2022-09-11T02:57:31.260Z,99.90
2022-09-11T03:00:03.911Z,99.90
2022-09-11T03:02:40.312Z,99.90
2022-09-11T03:05:11.943Z,99.90
2022-09-11T03:07:42.372Z,99.90
2022-09-11T03:10:12.662Z,99.90
2022-09-11T03:12:41.419Z,99.90
2022-09-11T03:15:13.034Z,99.90
2022-09-11T03:17:45.156Z,99.90
2022-09-11T03:20:16.283Z,99.90
2022-09-11T03:22:44.662Z,99.90
2022-09-11T03:25:13.126Z,99.90
2022-09-11T03:27:43.620Z,99.90
2022-09-11T03:30:15.121Z,99.90
2022-09-11T03:32:44.848Z,99.90
2022-09-11T03:35:14.881Z,99.90
2022-09-11T03:37:43.570Z,99.90
2022-09-11T03:40:12.341Z,99.90
2022-09-11T03:42:40.906Z,99.90
2022-09-11T03:45:10.397Z,99.90
2022-09-11T03:47:40.891Z,99.90
2022-09-11T03:50:12.244Z,99.90
2022-09-11T03:52:40.773Z,99.90
2022-09-11T03:55:10.520Z,99.90
2022-09-11T03:57:39.144Z,99.90
2022-09-11T04:00:10.539Z,99.90
2022-09-11T04:02:55.593Z,99.90
2022-09-11T04:05:34.511Z,99.90
2022-09-11T04:08:04.368Z,99.90
2022-09-11T04:10:35.388Z,99.90
2022-09-11T04:13:04.821Z,99.90
2022-09-11T04:15:33.334Z,99.90
2022-09-11T04:18:05.398Z,99.90
2022-09-11T04:20:40.352Z,99.90
2022-09-11T04:23:09.147Z,99.90
2022-09-11T04:25:37.631Z,99.90
2022-09-11T04:28:05.869Z,99.90
2022-09-11T04:30:38.761Z,99.90
2022-09-11T04:33:07.654Z,99.90
2022-09-11T04:35:40.760Z,99.90
2022-09-11T04:38:09.698Z,99.90
2022-09-11T04:40:39.664Z,99.90
2022-09-11T04:43:08.284Z,99.90
2022-09-11T04:45:36.598Z,99.90
2022-09-11T04:48:07.411Z,99.90
2022-09-11T04:50:35.808Z,99.90
2022-09-11T04:53:24.410Z,99.90
2022-09-11T04:55:52.520Z,99.90
2022-09-11T04:58:22.521Z,99.90
2022-09-11T05:00:52.408Z,99.90
2022-09-11T05:03:21.026Z,99.90
2022-09-11T05:05:49.088Z,99.90
2022-09-11T05:08:18.872Z,99.90
2022-09-11T05:10:50.903Z,99.90
2022-09-11T05:13:19.150Z,99.90
2022-09-11T05:15:47.244Z,99.90
2022-09-11T05:18:15.452Z,99.90
2022-09-11T05:20:44.187Z,99.90
2022-09-11T05:23:13.594Z,99.90
2022-09-11T05:25:41.749Z,99.90
2022-09-11T05:28:12.000Z,99.90
2022-09-11T05:30:40.172Z,99.90
2022-09-11T05:33:09.345Z,99.90
2022-09-11T05:35:37.656Z,99.90
2022-09-11T05:38:06.138Z,99.90
2022-09-11T05:40:34.254Z,99.90
2022-09-11T05:43:02.726Z,99.90
2022-09-11T05:45:32.891Z,99.90
2022-09-11T05:48:03.427Z,99.90
2022-09-11T05:50:35.997Z,99.90
2022-09-11T05:53:06.032Z,99.90
2022-09-11T05:55:35.927Z,99.90
2022-09-11T05:58:05.029Z,99.90
2022-09-11T06:00:35.846Z,99.90
2022-09-11T06:03:04.602Z,99.90
2022-09-11T06:05:34.051Z,99.90
2022-09-11T06:08:04.808Z,99.90
2022-09-11T06:10:33.702Z,99.90
2022-09-11T06:13:02.754Z,99.90
2022-09-11T06:15:46.577Z,99.90
2022-09-11T06:18:15.495Z,99.90
2022-09-11T06:20:44.301Z,99.90
2022-09-11T06:23:19.243Z,99.90
2022-09-11T06:25:48.340Z,99.90
2022-09-11T06:28:16.880Z,99.90
2022-09-11T06:30:50.292Z,99.90
2022-09-11T06:33:20.584Z,99.90
2022-09-11T06:35:58.933Z,99.90
2022-09-11T06:38:29.878Z,99.90
2022-09-11T06:40:58.569Z,99.90
2022-09-11T06:43:29.134Z,99.90
2022-09-11T06:46:05.570Z,99.90
2022-09-11T06:48:35.142Z,99.90
2022-09-11T06:51:08.626Z,99.90
2022-09-11T06:53:39.193Z,99.90
2022-09-11T06:56:14.180Z,99.90
2022-09-11T06:58:45.792Z,99.90
2022-09-11T07:01:17.240Z,99.90
2022-09-11T07:03:51.046Z,99.90
2022-09-11T07:06:23.790Z,99.90
2022-09-11T07:08:53.542Z,99.90
2022-09-11T07:11:22.605Z,99.90
2022-09-11T07:13:51.260Z,99.90
2022-09-11T07:16:21.711Z,99.90
2022-09-11T07:18:56.040Z,99.90
2022-09-11T07:21:28.020Z,99.90
2022-09-11T07:24:01.365Z,99.90
2022-09-11T07:26:35.968Z,99.90
2022-09-11T07:29:09.786Z,99.90
2022-09-11T07:31:40.480Z,99.90
2022-09-11T07:34:08.558Z,99.90
2022-09-11T07:36:38.034Z,99.90
2022-09-11T07:39:09.564Z,99.90
2022-09-11T07:42:01.781Z,99.90
2022-09-11T07:44:33.882Z,99.90
2022-09-11T07:47:05.816Z,99.90
2022-09-11T07:49:39.459Z,99.90
2022-09-11T07:52:08.700Z,99.90
2022-09-11T07:54:52.635Z,99.90
2022-09-11T07:57:24.200Z,99.90
2022-09-11T07:59:53.224Z,99.90
2022-09-11T08:02:23.467Z,99.90
2022-09-11T08:04:55.589Z,99.90
2022-09-11T08:07:25.511Z,99.90
2022-09-11T08:10:10.431Z,99.90
2022-09-11T08:12:43.407Z,99.90
2022-09-11T08:15:11.828Z,99.90
2022-09-11T08:17:41.608Z,99.90
2022-09-11T08:20:11.211Z,99.90
2022-09-11T08:22:39.316Z,99.90
2022-09-11T08:25:09.642Z,99.90
2022-09-11T08:27:38.177Z,99.90
2022-09-11T08:30:09.209Z,99.90
2022-09-11T08:32:37.934Z,99.90
2022-09-11T08:35:08.829Z,99.90
2022-09-11T08:37:36.922Z,99.90
2022-09-11T08:40:06.608Z,99.90
2022-09-11T08:42:36.685Z,99.90
2022-09-11T08:45:08.601Z,99.90
2022-09-11T08:47:42.352Z,99.90
2022-09-11T08:50:23.932Z,99.90
2022-09-11T08:52:54.342Z,99.90
2022-09-11T08:55:34.380Z,99.90
2022-09-11T08:58:17.778Z,99.90
2022-09-11T09:01:02.783Z,99.90
2022-09-11T09:04:03.479Z,99.90
2022-09-11T09:06:55.365Z,99.90
2022-09-11T09:09:38.941Z,99.90
2022-09-11T09:12:21.203Z,99.90
2022-09-11T09:15:29.567Z,99.90
2022-09-11T09:18:05.441Z,99.90
2022-09-11T09:20:40.175Z,99.90
2022-09-11T09:23:21.136Z,99.90
2022-09-11T09:25:53.065Z,99.90
2022-09-11T09:28:24.765Z,99.90
2022-09-11T09:30:57.316Z,99.90
2022-09-11T09:33:34.086Z,99.90
2022-09-11T09:36:17.740Z,99.90
2022-09-11T09:38:48.289Z,99.90
2022-09-11T09:41:56.832Z,99.90
2022-09-11T09:44:42.905Z,99.90
2022-09-11T09:47:13.815Z,99.90
2022-09-11T09:49:44.108Z,99.90
2022-09-11T09:52:19.834Z,99.90
2022-09-11T09:55:00.845Z,99.90
2022-09-11T09:57:34.297Z,99.90
2022-09-11T10:00:07.783Z,99.90
2022-09-11T10:02:45.398Z,99.90
2022-09-11T10:05:21.821Z,99.90
2022-09-11T10:07:53.651Z,99.90
2022-09-11T10:10:31.763Z,99.90
2022-09-11T10:13:18.646Z,99.90
2022-09-11T10:15:50.906Z,99.90
2022-09-11T10:18:35.966Z,99.90
2022-09-11T10:21:22.170Z,99.90
2022-09-11T10:23:54.589Z,99.90
2022-09-11T10:26:34.322Z,99.90
2022-09-11T10:29:10.192Z,99.90
2022-09-11T10:31:49.450Z,99.90
2022-09-11T10:34:20.595Z,99.90
2022-09-11T10:36:55.807Z,99.90
2022-09-11T10:39:28.281Z,99.90
2022-09-11T10:42:05.477Z,99.90
2022-09-11T10:44:35.598Z,99.90
2022-09-11T10:47:07.041Z,99.90
2022-09-11T10:49:36.000Z,99.90
2022-09-11T10:52:19.336Z,99.90
2022-09-11T10:55:04.597Z,99.90
2022-09-11T10:57:43.652Z,99.90
2022-09-11T11:00:20.115Z,99.90
2022-09-11T11:02:53.427Z,99.90
2022-09-11T11:05:31.403Z,99.90
2022-09-11T11:08:22.453Z,99.90
2022-09-11T11:11:15.421Z,99.90
2022-09-11T11:14:38.147Z,99.90
2022-09-11T11:17:24.961Z,99.90
2022-09-11T11:20:10.893Z,99.90
2022-09-11T11:23:24.657Z,99.90
2022-09-11T11:26:14.823Z,99.90
2022-09-11T11:29:15.636Z,99.90
2022-09-11T11:32:16.220Z,99.90
2022-09-11T11:35:19.012Z,99.90
2022-09-11T11:37:50.655Z,99.90
2022-09-11T11:40:29.950Z,99.90
2022-09-11T11:43:05.374Z,99.90
2022-09-11T11:45:43.644Z,99.90
2022-09-11T11:48:21.783Z,99.90
2022-09-11T11:50:55.202Z,99.90
2022-09-11T11:53:29.301Z,99.90
2022-09-11T11:56:12.119Z,99.90
2022-09-11T11:58:51.138Z,99.90
2022-09-11T12:01:29.809Z,99.80
2022-09-11T12:04:05.981Z,98.70
2022-09-11T12:06:34.052Z,98.40
2022-09-11T12:09:06.467Z,98.10
2022-09-11T12:11:36.042Z,97.90
2022-09-11T12:14:05.820Z,98.40
2022-09-11T12:16:37.043Z,96.20
2022-09-11T12:19:19.782Z,96.40
2022-09-11T12:22:14.626Z,95.50
2022-09-11T12:24:59.926Z,94.40
2022-09-11T12:28:09.869Z,93.20
2022-09-11T12:30:59.381Z,91.90
2022-09-11T12:33:55.544Z,92.40
2022-09-11T12:36:49.508Z,92.40
2022-09-11T12:39:29.047Z,92.50
2022-09-11T12:42:49.507Z,92.70
2022-09-11T12:45:35.812Z,92.10
2022-09-11T12:48:11.959Z,92.30
2022-09-11T12:50:52.073Z,91.50
2022-09-11T12:53:27.308Z,90.40
2022-09-11T12:56:01.920Z,89.50
2022-09-11T12:58:37.237Z,90.30
2022-09-11T13:01:19.741Z,90.60
2022-09-11T13:03:57.374Z,92.20
2022-09-11T13:06:42.024Z,92.80
2022-09-11T13:09:22.449Z,91.70
2022-09-11T13:11:53.530Z,91.80
2022-09-11T13:14:50.484Z,93.40
2022-09-11T13:17:30.558Z,94.80
2022-09-11T13:20:22.665Z,94.60
2022-09-11T13:22:58.137Z,94.60
2022-09-11T13:25:28.312Z,96.20
2022-09-11T13:28:02.222Z,97.50
2022-09-11T13:30:30.622Z,97.70
2022-09-11T13:33:07.910Z,96.20
2022-09-11T13:35:40.422Z,94.20
2022-09-11T13:38:19.175Z,93.40
2022-09-11T13:40:54.798Z,92.50
2022-09-11T13:43:31.095Z,92.50
2022-09-11T13:46:21.303Z,91.20
2022-09-11T13:48:53.434Z,91.30
2022-09-11T13:51:25.906Z,90.70
2022-09-11T13:54:08.975Z,90.10
2022-09-11T13:57:07.137Z,90.30
2022-09-11T13:59:43.359Z,90.20
2022-09-11T14:02:49.787Z,91.70
2022-09-11T14:05:23.296Z,91.20
2022-09-11T14:08:00.742Z,91.30
2022-09-11T14:10:34.554Z,91.30
2022-09-11T14:13:18.702Z,91.90
2022-09-11T14:15:52.515Z,92.00
2022-09-11T14:18:31.824Z,91.90
2022-09-11T14:21:06.645Z,90.80
2022-09-11T14:23:45.871Z,90.70
2022-09-11T14:26:18.465Z,90.70
2022-09-11T14:29:07.082Z,91.30
2022-09-11T14:31:39.063Z,92.00
2022-09-11T14:34:22.073Z,93.00
2022-09-11T14:36:58.371Z,93.10
2022-09-11T14:39:33.152Z,93.60
2022-09-11T14:42:04.930Z,93.60
2022-09-11T14:44:35.910Z,93.60
2022-09-11T14:47:04.023Z,94.90
2022-09-11T14:49:32.831Z,95.20
2022-09-11T14:52:02.397Z,95.90
2022-09-11T14:54:32.118Z,96.20
2022-09-11T14:57:03.812Z,95.90
2022-09-11T14:59:31.859Z,96.20
2022-09-11T15:02:00.663Z,97.30
2022-09-11T15:04:29.689Z,97.20
2022-09-11T15:06:59.791Z,98.00
2022-09-11T15:09:29.456Z,98.00
2022-09-11T15:11:58.508Z,97.60
2022-09-11T15:14:52.366Z,97.80
2022-09-11T15:17:20.478Z,97.70
2022-09-11T15:19:50.355Z,98.20
2022-09-11T15:22:18.929Z,98.30
2022-09-11T15:24:50.076Z,97.90
2022-09-11T15:27:19.601Z,98.00
2022-09-11T15:29:49.156Z,98.40
2022-09-11T15:32:17.805Z,98.70
2022-09-11T15:34:47.467Z,98.40
2022-09-11T15:37:17.203Z,98.70
2022-09-11T15:39:46.199Z,98.80
2022-09-11T15:42:14.323Z,98.70
2022-09-11T15:44:42.696Z,98.70
2022-09-11T15:47:13.751Z,99.00
2022-09-11T15:49:47.622Z,99.50
2022-09-11T15:52:15.824Z,99.70
2022-09-11T15:54:45.681Z,99.50
2022-09-11T15:57:14.323Z,99.70
2022-09-11T15:59:43.065Z,99.60
2022-09-11T16:02:14.366Z,99.70
2022-09-11T16:04:42.900Z,99.90
2022-09-11T16:07:10.973Z,99.90
2022-09-11T16:09:40.136Z,99.90
2022-09-11T16:12:09.078Z,99.90
2022-09-11T16:14:38.559Z,99.90
2022-09-11T16:17:09.347Z,99.90
2022-09-11T16:19:39.373Z,99.90
2022-09-11T16:22:09.357Z,99.90
2022-09-11T16:24:38.040Z,99.90
2022-09-11T16:27:10.784Z,99.90
2022-09-11T16:32:29.393Z,99.90
2022-09-11T16:35:00.065Z,99.90
2022-09-11T16:37:32.103Z,99.90
2022-09-11T16:40:02.141Z,99.90
2022-09-11T16:42:31.501Z,99.90
2022-09-11T16:44:59.571Z,99.90
2022-09-11T16:47:30.345Z,99.90
2022-09-11T16:50:06.931Z,99.60
2022-09-11T16:52:36.246Z,99.90
2022-09-11T16:55:06.527Z,99.90
2022-09-11T16:57:35.291Z,99.90
2022-09-11T17:00:05.071Z,99.90
2022-09-11T17:02:33.388Z,99.90
2022-09-11T17:05:03.889Z,99.90
2022-09-11T17:07:32.778Z,99.90
2022-09-11T17:10:01.239Z,99.90
2022-09-11T17:12:29.364Z,99.90
2022-09-11T17:14:58.006Z,99.90
2022-09-11T17:17:26.823Z,99.90
2022-09-11T17:19:56.963Z,99.90
2022-09-11T17:22:26.867Z,99.90
2022-09-11T17:24:55.322Z,99.90
2022-09-11T17:27:23.860Z,99.90
2022-09-11T17:29:51.915Z,99.90
2022-09-11T17:32:28.165Z,99.90
2022-09-11T17:34:58.731Z,99.90
2022-09-11T17:37:28.586Z,99.90
2022-09-11T17:39:57.873Z,99.90
2022-09-11T17:42:29.148Z,99.90
2022-09-11T17:44:57.619Z,99.90
2022-09-11T17:47:26.828Z,99.90
2022-09-11T17:49:55.288Z,99.90
2022-09-11T17:52:24.268Z,99.90
2022-09-11T17:54:54.093Z,99.90
2022-09-11T17:57:22.608Z,99.90
2022-09-11T17:59:51.387Z,99.90
2022-09-11T18:02:21.750Z,99.90
2022-09-11T18:04:49.921Z,99.90
2022-09-11T18:07:22.942Z,99.90
2022-09-11T18:10:04.438Z,99.90
2022-09-11T18:12:35.461Z,99.90
2022-09-11T18:15:04.146Z,99.90
2022-09-11T18:17:32.344Z,99.90
2022-09-11T18:20:01.322Z,99.90
2022-09-11T18:22:29.845Z,99.90
2022-09-11T18:25:00.246Z,99.90
2022-09-11T18:27:29.778Z,99.90
2022-09-11T18:29:59.854Z,99.90
2022-09-11T18:32:29.948Z,99.90
2022-09-11T18:35:00.150Z,99.90
2022-09-11T18:37:28.870Z,99.90
2022-09-11T18:39:57.395Z,99.90
2022-09-11T18:42:26.963Z,99.90
2022-09-11T18:44:59.948Z,99.90
2022-09-11T18:47:30.549Z,99.90
2022-09-11T18:49:59.747Z,99.90
2022-09-11T18:52:30.715Z,99.90
2022-09-11T18:55:00.254Z,99.90
2022-09-11T18:57:30.281Z,99.90
2022-09-11T19:00:00.104Z,99.90
2022-09-11T19:02:29.133Z,99.90
2022-09-11T19:04:57.199Z,99.90
2022-09-11T19:07:25.331Z,99.90
2022-09-11T19:09:54.568Z,99.90
2022-09-11T19:12:23.286Z,99.90
2022-09-11T19:14:53.340Z,99.90
2022-09-11T19:17:21.363Z,99.90
2022-09-11T19:19:50.076Z,99.90
2022-09-11T19:22:22.641Z,99.90
2022-09-11T19:24:51.159Z,99.90
2022-09-11T19:27:20.247Z,99.90
2022-09-11T19:29:50.416Z,99.90
2022-09-11T19:32:20.049Z,99.90
2022-09-11T19:34:48.150Z,99.90
2022-09-11T19:37:16.623Z,99.90
2022-09-11T19:39:44.943Z,99.90
2022-09-11T19:42:13.576Z,99.90
2022-09-11T19:44:42.100Z,99.90
2022-09-11T19:47:10.573Z,99.90
2022-09-11T19:49:40.219Z,99.90
2022-09-11T19:52:08.520Z,99.90
2022-09-11T19:54:38.135Z,99.90
2022-09-11T19:57:07.738Z,99.90
2022-09-11T19:59:36.172Z,99.90
2022-09-11T20:02:04.564Z,99.90
2022-09-11T20:04:33.643Z,99.90
2022-09-11T20:07:03.495Z,99.90
2022-09-11T20:09:32.517Z,99.90
2022-09-11T20:12:01.892Z,99.90
2022-09-11T20:14:31.128Z,99.90
2022-09-11T20:17:01.333Z,99.90
2022-09-11T20:19:29.717Z,99.90
2022-09-11T20:22:00.446Z,99.90
2022-09-11T20:24:30.284Z,99.90
2022-09-11T20:27:00.492Z,99.90
2022-09-11T20:29:29.324Z,99.90
2022-09-11T20:31:57.211Z,99.90
2022-09-11T20:34:28.394Z,99.90
2022-09-11T20:37:00.753Z,99.90
2022-09-11T20:39:30.369Z,99.90
2022-09-11T20:42:00.498Z,99.90
2022-09-11T20:44:28.775Z,99.90
2022-09-11T20:46:57.207Z,99.90
2022-09-11T20:49:26.998Z,99.90
2022-09-11T20:51:55.047Z,99.90
2022-09-11T20:54:23.557Z,99.90
2022-09-11T20:56:53.393Z,99.90
2022-09-11T20:59:21.744Z,99.90
2022-09-11T21:01:50.597Z,99.90
2022-09-11T21:04:18.931Z,99.90
2022-09-11T21:06:47.913Z,99.90
2022-09-11T21:09:17.481Z,99.90
2022-09-11T21:11:45.818Z,99.90
2022-09-11T21:14:17.502Z,99.90
2022-09-11T21:16:46.047Z,99.90
2022-09-11T21:19:14.953Z,99.90
2022-09-11T21:21:43.046Z,99.90
2022-09-11T21:24:15.198Z,99.90
2022-09-11T21:26:43.750Z,99.90
2022-09-11T21:29:15.606Z,99.90
2022-09-11T21:31:43.854Z,99.90
2022-09-11T21:34:12.296Z,99.90
2022-09-11T21:36:40.622Z,99.90
2022-09-11T21:39:09.198Z,99.90
2022-09-11T21:41:37.535Z,99.90
2022-09-11T21:44:05.609Z,99.90
2022-09-11T21:46:35.977Z,99.90
2022-09-11T21:49:04.205Z,99.90
2022-09-11T21:51:32.198Z,99.90
2022-09-11T21:54:01.758Z,99.90
2022-09-11T21:56:33.279Z,99.90
2022-09-11T21:59:02.210Z,99.90
2022-09-11T22:01:32.768Z,99.90
2022-09-11T22:04:03.075Z,99.90
2022-09-11T22:06:31.582Z,99.90
2022-09-11T22:09:00.835Z,99.90
2022-09-11T22:11:28.958Z,99.90
2022-09-11T22:13:57.625Z,99.90
2022-09-11T22:16:26.014Z,99.90
2022-09-11T22:18:55.662Z,99.90
2022-09-11T22:21:25.897Z,99.90
2022-09-11T22:23:57.142Z,99.90
2022-09-11T22:26:26.376Z,99.90
2022-09-11T22:28:54.386Z,99.90
2022-09-11T22:31:26.178Z,99.90
2022-09-11T22:33:55.575Z,99.90
2022-09-11T22:36:28.863Z,99.90
2022-09-11T22:38:57.884Z,99.90
2022-09-11T22:41:27.150Z,99.90
2022-09-11T22:43:55.219Z,99.90
2022-09-11T22:46:24.361Z,99.90
2022-09-11T22:48:52.425Z,99.90
2022-09-11T22:51:20.962Z,99.90
2022-09-11T22:53:51.557Z,99.90
2022-09-11T22:56:20.166Z,99.90
2022-09-11T22:58:48.463Z,99.90
2022-09-11T23:01:22.107Z,99.90
2022-09-11T23:03:53.519Z,99.90
2022-09-11T23:06:40.056Z,99.90
2022-09-11T23:09:13.394Z,99.90
2022-09-11T23:11:41.698Z,99.90
2022-09-11T23:14:14.391Z,99.90
2022-09-11T23:16:44.592Z,99.90
2022-09-11T23:19:15.592Z,99.90
2022-09-11T23:21:44.147Z,99.90
2022-09-11T23:24:17.252Z,99.90
2022-09-11T23:26:47.005Z,99.90
2022-09-11T23:29:15.949Z,99.90
2022-09-11T23:31:44.313Z,99.90
2022-09-11T23:34:16.828Z,99.90
2022-09-11T23:36:45.587Z,99.90
2022-09-11T23:39:15.909Z,99.90
2022-09-11T23:41:44.232Z,99.90
2022-09-11T23:44:12.492Z,99.90
2022-09-11T23:46:41.129Z,99.90
2022-09-11T23:49:09.408Z,99.90
2022-09-11T23:51:37.827Z,99.90
2022-09-11T23:54:06.709Z,99.90
2022-09-11T23:56:36.294Z,99.90
2022-09-11T23:59:04.850Z,99.90
